Time;durP1;ratioP1;P1;durP2;ratioP2;P2;SDS_P1;SDS_P2;PMS_P1;PMS_P2;Temp;Humidity;BMP_temperature;BMP_pressure;BME280_temperature;BME280_humidity;BME280_pressure;Samples;Min_cycle;Max_cycle;Signal;HPM_P1;HPM_P2
2023/08/02 00:00:42;;;;;;;1.27;0.93;;;;;;;;;;5916373;28;20048;-83
2023/08/02 00:03:33;;;;;;;1.58;1.30;;;;;;;;;;5883849;28;20055;-84
2023/08/02 00:06:27;;;;;;;1.27;1.17;;;;;;;;;;5910652;28;20067;-83
2023/08/02 00:09:18;;;;;;;0.73;0.68;;;;;;;;;;5892950;28;20051;-83
2023/08/02 00:12:09;;;;;;;1.88;0.73;;;;;;;;;;5910788;28;20052;-84
2023/08/02 00:15:00;;;;;;;2.63;1.38;;;;;;;;;;5910843;28;20048;-83
2023/08/02 00:17:51;;;;;;;2.03;1.27;;;;;;;;;;5910851;28;20055;-83
2023/08/02 00:20:44;;;;;;;1.10;0.77;;;;;;;;;;5911047;28;20052;-83
2023/08/02 00:23:35;;;;;;;2.30;1.90;;;;;;;;;;5910517;28;20056;-84
2023/08/02 00:26:27;;;;;;;1.63;1.05;;;;;;;;;;5910501;28;20056;-83
2023/08/02 00:29:18;;;;;;;4.75;1.75;;;;;;;;;;5892652;28;20051;-84
2023/08/02 00:32:09;;;;;;;1.50;1.17;;;;;;;;;;5910493;28;20356;-83
2023/08/02 00:35:02;;;;;;;2.65;1.92;;;;;;;;;;5910890;28;20048;-84
2023/08/02 00:37:53;;;;;;;4.40;1.58;;;;;;;;;;5910575;28;20048;-84
2023/08/02 00:40:43;;;;;;;8.98;1.55;;;;;;;;;;5910225;28;20047;-84
2023/08/02 00:43:52;;;;;;;6.03;1.70;;;;;;;;;;5909370;28;20049;-84
2023/08/02 00:46:43;;;;;;;3.00;1.30;;;;;;;;;;5914602;28;20143;-84
2023/08/02 00:49:35;;;;;;;1.85;1.30;;;;;;;;;;5914821;28;20517;-84
2023/08/02 00:52:26;;;;;;;1.23;0.90;;;;;;;;;;5914705;28;20521;-83
2023/08/02 00:55:17;;;;;;;1.67;0.90;;;;;;;;;;5897023;28;20079;-83
2023/08/02 00:58:08;;;;;;;2.10;0.90;;;;;;;;;;5914581;28;20470;-84
2023/08/02 01:01:08;;;;;;;1.67;1.08;;;;;;;;;;5897386;28;20048;-83
2023/08/02 01:03:59;;;;;;;1.48;1.27;;;;;;;;;;5898534;28;20049;-83
2023/08/02 01:07:42;;;;;;;0.85;0.85;;;;;;;;;;5897278;28;20044;-83
2023/08/02 01:10:49;;;;;;;3.50;1.13;;;;;;;;;;5841918;28;20050;-84
2023/08/02 01:13:50;;;;;;;4.72;1.38;;;;;;;;;;5842034;28;20056;-83
2023/08/02 01:16:41;;;;;;;1.67;1.40;;;;;;;;;;5914383;28;20053;-84
2023/08/02 01:19:33;;;;;;;4.20;1.55;;;;;;;;;;5896371;28;20128;-83
2023/08/02 01:22:23;;;;;;;3.88;1.23;;;;;;;;;;5914268;28;20407;-83
2023/08/02 01:25:14;;;;;;;1.38;0.93;;;;;;;;;;5914113;28;20139;-84
2023/08/02 01:28:15;;;;;;;2.15;1.45;;;;;;;;;;5913682;28;20153;-83
2023/08/02 01:31:08;;;;;;;1.98;1.63;;;;;;;;;;5914022;28;20049;-84
2023/08/02 01:34:00;;;;;;;1.70;1.60;;;;;;;;;;5897282;28;20049;-83
2023/08/02 01:36:51;;;;;;;1.05;1.02;;;;;;;;;;5896634;28;20049;-84
2023/08/02 01:39:42;;;;;;;1.85;1.63;;;;;;;;;;5896212;28;20049;-83
2023/08/02 01:42:33;;;;;;;3.85;1.70;;;;;;;;;;5913864;28;20048;-83
2023/08/02 01:45:24;;;;;;;2.42;1.27;;;;;;;;;;5913784;28;20394;-83
2023/08/02 01:48:15;;;;;;;1.55;1.30;;;;;;;;;;5913660;28;20044;-82
2023/08/02 01:51:06;;;;;;;4.82;1.77;;;;;;;;;;5913522;28;20048;-85
2023/08/02 01:53:56;;;;;;;2.88;1.45;;;;;;;;;;5913920;28;20155;-84
2023/08/02 01:56:47;;;;;;;4.35;1.58;;;;;;;;;;5912329;28;20056;-83
2023/08/02 01:59:38;;;;;;;5.93;2.05;;;;;;;;;;5913437;28;20054;-83
2023/08/02 02:02:29;;;;;;;3.92;1.45;;;;;;;;;;5913299;28;20123;-82
2023/08/02 02:05:20;;;;;;;1.77;1.15;;;;;;;;;;5913840;28;20045;-83
2023/08/02 02:08:11;;;;;;;1.52;1.15;;;;;;;;;;5913420;28;20066;-83
2023/08/02 02:11:04;;;;;;;3.00;1.17;;;;;;;;;;5913095;28;20052;-83
2023/08/02 02:13:54;;;;;;;2.65;1.30;;;;;;;;;;5913596;28;20055;-83
2023/08/02 02:16:45;;;;;;;1.75;1.38;;;;;;;;;;5913007;28;20075;-83
2023/08/02 02:19:36;;;;;;;2.50;1.85;;;;;;;;;;5912655;28;20048;-85
2023/08/02 02:22:27;;;;;;;6.70;1.25;;;;;;;;;;5912565;28;20057;-83
2023/08/02 02:25:18;;;;;;;1.42;1.33;;;;;;;;;;5912702;28;20048;-83
2023/08/02 02:28:10;;;;;;;3.08;1.52;;;;;;;;;;5912794;28;20413;-84
2023/08/02 02:31:01;;;;;;;2.45;1.55;;;;;;;;;;5913118;28;20414;-83
2023/08/02 02:33:52;;;;;;;3.55;2.10;;;;;;;;;;5894829;28;20491;-83
2023/08/02 02:36:45;;;;;;;1.52;1.25;;;;;;;;;;5912237;28;20049;-83
2023/08/02 02:39:36;;;;;;;4.10;1.35;;;;;;;;;;5912281;28;20055;-83
2023/08/02 02:42:27;;;;;;;1.92;1.25;;;;;;;;;;5912044;28;20056;-83
2023/08/02 02:45:18;;;;;;;1.73;1.33;;;;;;;;;;5912106;28;20219;-83
2023/08/02 02:48:09;;;;;;;2.03;1.30;;;;;;;;;;5912229;28;20044;-83
2023/08/02 02:51:00;;;;;;;1.88;1.42;;;;;;;;;;5912457;28;20053;-83
2023/08/02 02:53:51;;;;;;;1.45;1.35;;;;;;;;;;5912331;28;20059;-83
2023/08/02 02:56:41;;;;;;;1.83;1.05;;;;;;;;;;5911659;28;20056;-84
2023/08/02 02:59:33;;;;;;;4.43;1.65;;;;;;;;;;5911851;28;20051;-83
2023/08/02 03:02:32;;;;;;;1.17;1.08;;;;;;;;;;5911629;28;20122;-83
2023/08/02 03:05:28;;;;;;;2.75;2.22;;;;;;;;;;5900372;28;20052;-83
2023/08/02 03:08:18;;;;;;;2.40;1.67;;;;;;;;;;5911072;28;20052;-84
2023/08/02 03:11:10;;;;;;;1.98;1.20;;;;;;;;;;5911497;28;20059;-84
2023/08/02 03:14:01;;;;;;;2.38;1.17;;;;;;;;;;5910503;28;20131;-86
2023/08/02 03:16:52;;;;;;;2.85;1.73;;;;;;;;;;5894418;28;20045;-84
2023/08/02 03:19:43;;;;;;;1.98;1.77;;;;;;;;;;5911572;28;20186;-84
2023/08/02 03:22:34;;;;;;;2.28;1.77;;;;;;;;;;5911332;28;20467;-86
2023/08/02 03:25:25;;;;;;;3.22;1.63;;;;;;;;;;5893828;28;20123;-85
2023/08/02 03:28:16;;;;;;;2.80;1.33;;;;;;;;;;5893754;28;20058;-83
2023/08/02 03:31:06;;;;;;;3.88;2.22;;;;;;;;;;5911126;28;20048;-86
2023/08/02 03:33:57;;;;;;;5.45;2.08;;;;;;;;;;5894045;28;20053;-85
2023/08/02 03:36:48;;;;;;;2.15;1.75;;;;;;;;;;5911332;28;20060;-84
2023/08/02 03:39:39;;;;;;;1.58;1.48;;;;;;;;;;5911243;28;20450;-85
2023/08/02 03:42:30;;;;;;;2.35;1.33;;;;;;;;;;5893440;28;20052;-85
2023/08/02 03:45:21;;;;;;;1.98;1.40;;;;;;;;;;5911178;28;20519;-85
2023/08/02 03:48:11;;;;;;;2.80;1.73;;;;;;;;;;5892958;28;20051;-85
2023/08/02 03:51:03;;;;;;;4.28;2.35;;;;;;;;;;5911267;28;20048;-85
2023/08/02 03:53:53;;;;;;;6.05;3.20;;;;;;;;;;5893134;28;20052;-84
2023/08/02 03:56:44;;;;;;;4.13;2.63;;;;;;;;;;5893147;28;20131;-84
2023/08/02 03:59:35;;;;;;;4.03;2.35;;;;;;;;;;5910819;28;20048;-83
2023/08/02 04:02:26;;;;;;;3.60;2.50;;;;;;;;;;5910765;28;20419;-84
2023/08/02 04:05:17;;;;;;;4.93;2.33;;;;;;;;;;5909718;28;20056;-85
2023/08/02 04:08:08;;;;;;;3.28;2.05;;;;;;;;;;5911017;28;20054;-84
2023/08/02 04:11:04;;;;;;;2.90;1.42;;;;;;;;;;5893553;28;20048;-84
2023/08/02 04:13:55;;;;;;;3.67;2.08;;;;;;;;;;5892976;28;20041;-84
2023/08/02 04:16:46;;;;;;;2.78;1.95;;;;;;;;;;5892839;28;20055;-85
2023/08/02 04:19:37;;;;;;;2.67;2.47;;;;;;;;;;5911461;28;20055;-85
2023/08/02 04:22:31;;;;;;;3.85;2.47;;;;;;;;;;5897838;28;20052;-84
2023/08/02 04:25:23;;;;;;;2.05;1.77;;;;;;;;;;5897996;28;20044;-85
2023/08/02 04:28:13;;;;;;;3.55;2.58;;;;;;;;;;5897405;28;20135;-84
2023/08/02 04:31:04;;;;;;;4.13;2.33;;;;;;;;;;5897677;28;20048;-85
2023/08/02 04:33:56;;;;;;;3.05;2.33;;;;;;;;;;5898044;28;20610;-86
2023/08/02 04:36:47;;;;;;;4.40;2.38;;;;;;;;;;5881151;28;20101;-84
2023/08/02 04:39:37;;;;;;;7.28;3.15;;;;;;;;;;5915103;28;20472;-85
2023/08/02 04:42:28;;;;;;;2.78;2.10;;;;;;;;;;5915346;28;20045;-85
2023/08/02 04:45:19;;;;;;;4.93;3.28;;;;;;;;;;5897123;28;20057;-84
2023/08/02 04:48:10;;;;;;;2.60;2.08;;;;;;;;;;5915188;28;20048;-85
2023/08/02 04:51:09;;;;;;;7.47;2.50;;;;;;;;;;5897607;28;20059;-84
2023/08/02 04:54:00;;;;;;;4.00;2.97;;;;;;;;;;5915169;28;20041;-84
2023/08/02 04:56:51;;;;;;;2.08;1.88;;;;;;;;;;5897434;28;20048;-85
2023/08/02 04:59:42;;;;;;;3.00;2.70;;;;;;;;;;5896868;28;20043;-84
2023/08/02 05:02:36;;;;;;;3.53;2.55;;;;;;;;;;5914902;28;20442;-84
2023/08/02 05:05:27;;;;;;;2.28;2.00;;;;;;;;;;5897060;28;20055;-84
2023/08/02 05:08:19;;;;;;;7.13;3.20;;;;;;;;;;5914418;28;20040;-84
2023/08/02 05:11:10;;;;;;;2.83;2.40;;;;;;;;;;5879873;28;20048;-84
2023/08/02 05:14:01;;;;;;;4.40;3.03;;;;;;;;;;5897051;28;20070;-88
2023/08/02 05:16:51;;;;;;;6.53;2.75;;;;;;;;;;5915024;28;20045;-84
2023/08/02 05:19:42;;;;;;;2.55;2.15;;;;;;;;;;5914641;28;20040;-83
2023/08/02 05:22:33;;;;;;;3.53;2.08;;;;;;;;;;5914288;28;20410;-84
2023/08/02 05:25:31;;;;;;;3.65;3.17;;;;;;;;;;5914144;28;20040;-84
2023/08/02 05:28:22;;;;;;;3.63;2.10;;;;;;;;;;5896857;28;20041;-83
2023/08/02 05:31:13;;;;;;;3.97;2.15;;;;;;;;;;5912350;28;20063;-84
2023/08/02 05:34:07;;;;;;;7.55;3.30;;;;;;;;;;5896629;28;20127;-84
2023/08/02 05:36:58;;;;;;;2.83;1.92;;;;;;;;;;5914969;28;20511;-83
2023/08/02 05:39:48;;;;;;;6.20;2.35;;;;;;;;;;5896473;28;20519;-84
2023/08/02 05:42:39;;;;;;;3.97;2.38;;;;;;;;;;5896449;28;20076;-83
2023/08/02 05:45:30;;;;;;;4.93;2.58;;;;;;;;;;5895923;28;20044;-82
2023/08/02 05:48:21;;;;;;;3.47;1.58;;;;;;;;;;5913804;28;20048;-82
2023/08/02 05:51:11;;;;;;;2.60;2.03;;;;;;;;;;5913202;28;20526;-83
2023/08/02 05:54:02;;;;;;;3.15;2.20;;;;;;;;;;5913550;28;20049;-83
2023/08/02 05:56:53;;;;;;;3.55;2.15;;;;;;;;;;5913764;28;20051;-83
2023/08/02 05:59:44;;;;;;;3.15;2.30;;;;;;;;;;5913422;28;20481;-83
2023/08/02 06:02:35;;;;;;;2.13;1.92;;;;;;;;;;5913645;28;20044;-82
2023/08/02 06:05:27;;;;;;;2.95;1.83;;;;;;;;;;5913197;28;20056;-82
2023/08/02 06:08:17;;;;;;;1.52;1.42;;;;;;;;;;5913024;28;20048;-82
2023/08/02 06:11:08;;;;;;;5.22;2.38;;;;;;;;;;5912913;28;20055;-83
2023/08/02 06:13:59;;;;;;;2.90;2.13;;;;;;;;;;5896014;28;20059;-82
2023/08/02 06:16:50;;;;;;;2.28;1.70;;;;;;;;;;5913281;28;20485;-83
2023/08/02 06:19:41;;;;;;;3.65;1.80;;;;;;;;;;5913048;28;20522;-82
2023/08/02 06:22:32;;;;;;;2.97;2.10;;;;;;;;;;5912959;28;20050;-81
2023/08/02 06:25:23;;;;;;;3.28;1.48;;;;;;;;;;5913087;28;20051;-82
2023/08/02 06:28:13;;;;;;;2.60;1.75;;;;;;;;;;5912843;28;20049;-82
2023/08/02 06:31:04;;;;;;;3.53;2.22;;;;;;;;;;5912850;28;20420;-81
2023/08/02 06:33:55;;;;;;;2.53;1.48;;;;;;;;;;5913184;28;20051;-83
2023/08/02 06:36:46;;;;;;;3.63;1.42;;;;;;;;;;5913065;28;20067;-81
2023/08/02 06:39:36;;;;;;;1.73;1.48;;;;;;;;;;5911551;28;20507;-82
2023/08/02 06:42:27;;;;;;;2.72;1.75;;;;;;;;;;5912490;28;20048;-81
2023/08/02 06:45:18;;;;;;;2.38;1.73;;;;;;;;;;5912633;28;20058;-81
2023/08/02 06:48:09;;;;;;;2.05;1.48;;;;;;;;;;5912824;28;20059;-82
2023/08/02 06:51:00;;;;;;;1.50;1.20;;;;;;;;;;5913160;28;20051;-81
2023/08/02 06:53:51;;;;;;;1.55;1.05;;;;;;;;;;5912813;28;20045;-81
2023/08/02 06:56:42;;;;;;;2.42;1.42;;;;;;;;;;5912463;28;20414;-82
2023/08/02 06:59:33;;;;;;;2.42;1.85;;;;;;;;;;5912584;28;20548;-81
2023/08/02 07:02:24;;;;;;;3.05;1.45;;;;;;;;;;5912245;28;20044;-81
2023/08/02 07:05:14;;;;;;;2.38;1.30;;;;;;;;;;5894778;28;20083;-81
2023/08/02 07:08:05;;;;;;;7.20;1.80;;;;;;;;;;5912201;28;20502;-81
2023/08/02 07:10:56;;;;;;;3.92;1.92;;;;;;;;;;5912459;28;20044;-81
2023/08/02 07:13:47;;;;;;;1.77;1.35;;;;;;;;;;5912384;28;20076;-80
2023/08/02 07:16:37;;;;;;;1.73;1.42;;;;;;;;;;5911899;28;20052;-82
2023/08/02 07:19:28;;;;;;;2.40;1.58;;;;;;;;;;5912235;28;20051;-81
2023/08/02 07:22:19;;;;;;;1.70;1.33;;;;;;;;;;5911702;28;20055;-80
2023/08/02 07:25:10;;;;;;;1.98;1.17;;;;;;;;;;5911705;28;20056;-81
2023/08/02 07:28:01;;;;;;;4.50;2.50;;;;;;;;;;5911375;28;20049;-80
2023/08/02 07:30:52;;;;;;;5.55;2.42;;;;;;;;;;5912020;28;20099;-81
2023/08/02 07:33:45;;;;;;;7.55;2.08;;;;;;;;;;5911717;28;20549;-80
2023/08/02 07:36:36;;;;;;;3.58;1.35;;;;;;;;;;5910175;28;20491;-82
2023/08/02 07:39:26;;;;;;;2.92;1.67;;;;;;;;;;5911902;28;20509;-81
2023/08/02 07:42:17;;;;;;;4.95;2.03;;;;;;;;;;5911498;28;20048;-82
2023/08/02 07:45:10;;;;;;;2.95;1.95;;;;;;;;;;5911632;28;20079;-81
2023/08/02 07:48:01;;;;;;;1.67;1.02;;;;;;;;;;5911984;28;20053;-84
2023/08/02 07:50:52;;;;;;;4.22;1.77;;;;;;;;;;5911809;28;20519;-81
2023/08/02 07:53:43;;;;;;;1.27;0.68;;;;;;;;;;5911039;28;20377;-81
2023/08/02 07:56:34;;;;;;;3.42;1.65;;;;;;;;;;5910955;28;20066;-81
2023/08/02 07:59:25;;;;;;;0.80;0.70;;;;;;;;;;5893603;28;20532;-81
2023/08/02 08:02:15;;;;;;;0.63;0.60;;;;;;;;;;5911225;28;20483;-83
2023/08/02 08:05:07;;;;;;;0.68;0.50;;;;;;;;;;5911566;28;20052;-81
2023/08/02 08:07:58;;;;;;;0.50;0.50;;;;;;;;;;5911802;28;20048;-82
2023/08/02 08:10:53;;;;;;;0.85;0.52;;;;;;;;;;5893380;28;20040;-82
2023/08/02 08:13:43;;;;;;;3.67;0.60;;;;;;;;;;5893590;28;20490;-80
2023/08/02 08:16:34;;;;;;;2.47;0.40;;;;;;;;;;5911042;28;20128;-82
2023/08/02 08:19:26;;;;;;;0.95;0.47;;;;;;;;;;5911029;28;20060;-82
2023/08/02 08:22:18;;;;;;;0.40;0.40;;;;;;;;;;5911037;28;20056;-82
2023/08/02 08:25:09;;;;;;;0.88;0.50;;;;;;;;;;5910995;28;20045;-82
2023/08/02 08:28:00;;;;;;;2.08;0.95;;;;;;;;;;5911650;28;20053;-81
2023/08/02 08:31:02;;;;;;;1.42;0.57;;;;;;;;;;5911118;28;20071;-81
2023/08/02 08:33:53;;;;;;;0.45;0.38;;;;;;;;;;5911421;28;20144;-81
2023/08/02 08:36:46;;;;;;;0.88;0.50;;;;;;;;;;5893195;28;20649;-80
2023/08/02 08:39:39;;;;;;;2.25;0.82;;;;;;;;;;5910919;28;20400;-82
2023/08/02 08:42:30;;;;;;;0.93;0.73;;;;;;;;;;5910944;28;20052;-82
2023/08/02 08:45:25;;;;;;;0.63;0.60;;;;;;;;;;5910994;28;20503;-81
2023/08/02 08:48:16;;;;;;;1.08;0.45;;;;;;;;;;5893123;28;20045;-83
2023/08/02 08:51:10;;;;;;;0.52;0.30;;;;;;;;;;5910785;28;20056;-82
2023/08/02 08:54:08;;;;;;;0.57;0.40;;;;;;;;;;5911020;28;20559;-79
2023/08/02 08:57:00;;;;;;;1.17;0.95;;;;;;;;;;5894320;28;20387;-80
2023/08/02 08:59:51;;;;;;;0.40;0.40;;;;;;;;;;5892924;28;20052;-80
2023/08/02 09:02:43;;;;;;;0.68;0.43;;;;;;;;;;5910622;28;20391;-81
2023/08/02 09:05:35;;;;;;;0.57;0.57;;;;;;;;;;5911276;28;20044;-81
2023/08/02 09:08:26;;;;;;;0.47;0.20;;;;;;;;;;5915031;28;20063;-81
2023/08/02 09:11:17;;;;;;;2.97;1.17;;;;;;;;;;5914526;28;20048;-81
2023/08/02 09:14:16;;;;;;;1.15;0.60;;;;;;;;;;5897529;28;20123;-81
2023/08/02 09:17:06;;;;;;;;;;;;;;;;;;5915620;28;20479;-80
2023/08/02 09:20:08;;;;;;;0.88;0.52;;;;;;;;;;5915110;28;19920;-83
2023/08/02 09:23:00;;;;;;;0.47;0.30;;;;;;;;;;5914531;28;20403;-81
2023/08/02 09:25:51;;;;;;;0.65;0.47;;;;;;;;;;5914840;28;20391;-82
2023/08/02 09:29:06;;;;;;;0.60;0.38;;;;;;;;;;5874489;28;20048;-80
2023/08/02 09:31:57;;;;;;;0.60;0.30;;;;;;;;;;5889548;28;20048;-83
2023/08/02 09:34:57;;;;;;;4.20;0.47;;;;;;;;;;5913226;28;20053;-81
2023/08/02 09:37:49;;;;;;;0.80;0.70;;;;;;;;;;5898040;28;20041;-80
2023/08/02 09:40:40;;;;;;;0.20;0.20;;;;;;;;;;5915398;28;20040;-78
2023/08/02 09:43:52;;;;;;;0.30;0.30;;;;;;;;;;5914668;28;20056;-82
2023/08/02 09:46:43;;;;;;;2.58;1.10;;;;;;;;;;5914285;28;20051;-81
2023/08/02 09:49:33;;;;;;;1.15;0.60;;;;;;;;;;5914446;28;20044;-83
2023/08/02 09:52:27;;;;;;;3.38;0.60;;;;;;;;;;5913715;28;20041;-80
2023/08/02 09:55:18;;;;;;;6.22;0.75;;;;;;;;;;5914462;28;20052;-82
2023/08/02 09:58:11;;;;;;;0.30;0.30;;;;;;;;;;5914811;28;20051;-82
2023/08/02 10:01:03;;;;;;;0.22;0.20;;;;;;;;;;5897107;28;20325;-82
2023/08/02 10:03:58;;;;;;;0.77;0.77;;;;;;;;;;5897354;28;20143;-80
2023/08/02 10:07:04;;;;;;;0.52;0.52;;;;;;;;;;5914315;28;20055;-82
2023/08/02 10:10:06;;;;;;;0.30;0.30;;;;;;;;;;5897034;28;20051;-82
2023/08/02 10:13:12;;;;;;;1.08;0.47;;;;;;;;;;5914078;28;20049;-80
2023/08/02 10:16:04;;;;;;;1.50;0.50;;;;;;;;;;5879965;28;20052;-81
2023/08/02 10:18:56;;;;;;;5.95;0.45;;;;;;;;;;5872411;28;20533;-83
2023/08/02 10:21:48;;;;;;;1.92;0.90;;;;;;;;;;5872698;28;20412;-82
2023/08/02 10:24:40;;;;;;;0.35;0.15;;;;;;;;;;5890002;28;20411;-83
2023/08/02 10:27:31;;;;;;;3.03;0.50;;;;;;;;;;5890086;28;20048;-79
2023/08/02 10:30:22;;;;;;;0.38;0.22;;;;;;;;;;5872099;28;20048;-82
2023/08/02 10:33:18;;;;;;;0.73;0.63;;;;;;;;;;5872419;28;20545;-83
2023/08/02 10:36:09;;;;;;;0.40;0.40;;;;;;;;;;5872950;28;20052;-80
2023/08/02 10:39:00;;;;;;;0.28;0.25;;;;;;;;;;5890945;28;20088;-81
2023/08/02 10:41:57;;;;;;;0.90;0.63;;;;;;;;;;5890782;28;20399;-83
2023/08/02 10:44:55;;;;;;;0.47;0.22;;;;;;;;;;5913385;28;20542;-81
2023/08/02 10:47:46;;;;;;;0.57;0.35;;;;;;;;;;5912897;28;20044;-82
2023/08/02 10:50:48;;;;;;;0.93;0.52;;;;;;;;;;5913156;28;20052;-79
2023/08/02 10:53:39;;;;;;;0.55;0.47;;;;;;;;;;5913146;28;20466;-83
2023/08/02 10:56:30;;;;;;;0.55;0.45;;;;;;;;;;5913126;28;20047;-79
2023/08/02 10:59:24;;;;;;;0.82;0.17;;;;;;;;;;5913186;28;20171;-79
2023/08/02 11:02:15;;;;;;;0.65;0.30;;;;;;;;;;5913036;28;20049;-81
2023/08/02 11:05:06;;;;;;;1.30;0.20;;;;;;;;;;5912895;28;20479;-83
2023/08/02 11:07:59;;;;;;;0.20;0.13;;;;;;;;;;5896076;28;20052;-81
2023/08/02 11:10:55;;;;;;;0.20;0.20;;;;;;;;;;5894545;28;20048;-79
2023/08/02 11:13:46;;;;;;;0.70;0.20;;;;;;;;;;5894917;28;20045;-82
2023/08/02 11:16:41;;;;;;;0.20;0.10;;;;;;;;;;5913322;28;20127;-79
2023/08/02 11:19:48;;;;;;;0.10;0.10;;;;;;;;;;5896912;28;20051;-80
2023/08/02 11:22:42;;;;;;;0.20;0.20;;;;;;;;;;5895425;28;20049;-83
2023/08/02 11:25:32;;;;;;;0.30;0.30;;;;;;;;;;5913153;28;20047;-79
2023/08/02 11:28:26;;;;;;;0.47;0.20;;;;;;;;;;5911955;28;20040;-78
2023/08/02 11:31:17;;;;;;;0.10;0.10;;;;;;;;;;5912245;28;20049;-77
2023/08/02 11:34:08;;;;;;;0.10;0.10;;;;;;;;;;5914435;28;20051;-79
2023/08/02 11:36:59;;;;;;;0.25;0.25;;;;;;;;;;5895910;28;20510;-78
2023/08/02 11:39:57;;;;;;;0.52;0.52;;;;;;;;;;5895013;28;20048;-75
2023/08/02 11:42:53;;;;;;;0.10;0.10;;;;;;;;;;5915401;28;20053;-79
2023/08/02 11:45:47;;;;;;;0.22;0.22;;;;;;;;;;5913789;28;20045;-77
2023/08/02 11:48:38;;;;;;;1.20;0.43;;;;;;;;;;5913624;28;20052;-76
2023/08/02 11:51:29;;;;;;;0.90;0.17;;;;;;;;;;5911932;28;20525;-76
2023/08/02 11:54:20;;;;;;;0.10;0.10;;;;;;;;;;5916642;28;20048;-78
2023/08/02 11:57:11;;;;;;;0.28;0.22;;;;;;;;;;5913945;28;20126;-77
2023/08/02 12:00:02;;;;;;;0.15;0.15;;;;;;;;;;5913611;28;20075;-77
2023/08/02 12:03:06;;;;;;;0.22;0.10;;;;;;;;;;5894776;28;20063;-80
2023/08/02 12:06:01;;;;;;;0.20;0.20;;;;;;;;;;5905613;28;20064;-75
2023/08/02 12:08:58;;;;;;;0.10;0.00;;;;;;;;;;5912978;28;20052;-75
2023/08/02 12:11:53;;;;;;;0.40;0.17;;;;;;;;;;5896340;28;20071;-75
2023/08/02 12:14:44;;;;;;;0.17;0.10;;;;;;;;;;5913094;28;20483;-76
2023/08/02 12:17:35;;;;;;;1.40;0.35;;;;;;;;;;5912233;28;20044;-76
2023/08/02 12:20:34;;;;;;;0.40;0.22;;;;;;;;;;5912028;28;20044;-77
2023/08/02 12:23:32;;;;;;;0.28;0.10;;;;;;;;;;5911714;28;20045;-79
2023/08/02 12:26:35;;;;;;;0.17;0.00;;;;;;;;;;5912416;28;20045;-77
2023/08/02 12:29:26;;;;;;;0.68;0.08;;;;;;;;;;5896932;28;20045;-77
2023/08/02 12:32:27;;;;;;;0.00;0.00;;;;;;;;;;5935746;28;20048;-76
2023/08/02 12:35:18;;;;;;;0.10;0.08;;;;;;;;;;5932228;28;20160;-78
2023/08/02 12:38:09;;;;;;;1.45;0.38;;;;;;;;;;5912160;28;20135;-77
2023/08/02 12:41:03;;;;;;;0.10;0.03;;;;;;;;;;5907310;28;20080;-77
2023/08/02 12:43:54;;;;;;;0.15;0.10;;;;;;;;;;5898746;28;20091;-79
2023/08/02 12:46:46;;;;;;;1.55;0.15;;;;;;;;;;5916741;28;20045;-77
2023/08/02 12:49:36;;;;;;;0.17;0.17;;;;;;;;;;5916857;28;20040;-76
2023/08/02 12:52:29;;;;;;;0.30;0.22;;;;;;;;;;5912899;28;20142;-81
2023/08/02 12:55:19;;;;;;;0.10;0.10;;;;;;;;;;5927396;28;20052;-79
2023/08/02 12:58:10;;;;;;;0.43;0.10;;;;;;;;;;5916155;28;20044;-76
2023/08/02 13:01:01;;;;;;;0.45;0.10;;;;;;;;;;5915411;28;20139;-80
2023/08/02 13:03:52;;;;;;;0.43;0.25;;;;;;;;;;5915347;28;20052;-78
2023/08/02 13:06:43;;;;;;;0.00;0.00;;;;;;;;;;5913768;28;20068;-79
2023/08/02 13:09:45;;;;;;;0.45;0.10;;;;;;;;;;5923235;28;20050;-77
2023/08/02 13:12:37;;;;;;;0.20;0.10;;;;;;;;;;5920774;28;20054;-77
2023/08/02 13:15:28;;;;;;;0.35;0.00;;;;;;;;;;5921647;28;20071;-78
2023/08/02 13:18:19;;;;;;;1.13;0.35;;;;;;;;;;5924207;28;20558;-76
2023/08/02 13:21:10;;;;;;;0.22;0.05;;;;;;;;;;5927966;28;20048;-77
2023/08/02 13:24:01;;;;;;;0.03;0.03;;;;;;;;;;5916467;28;20048;-78
2023/08/02 13:26:52;;;;;;;0.20;0.10;;;;;;;;;;5931935;28;20052;-75
2023/08/02 13:29:43;;;;;;;0.20;0.10;;;;;;;;;;5920965;28;20045;-76
2023/08/02 13:32:36;;;;;;;0.30;0.10;;;;;;;;;;5914468;28;20048;-79
2023/08/02 13:35:27;;;;;;;0.22;0.20;;;;;;;;;;5897686;28;20049;-77
2023/08/02 13:38:18;;;;;;;0.20;0.20;;;;;;;;;;5925690;28;20097;-78
2023/08/02 13:41:09;;;;;;;0.70;0.30;;;;;;;;;;5923370;28;20067;-80
2023/08/02 13:44:00;;;;;;;0.25;0.00;;;;;;;;;;5925853;28;20076;-79
2023/08/02 13:46:51;;;;;;;2.50;0.98;;;;;;;;;;5922907;28;20045;-78
2023/08/02 13:49:42;;;;;;;0.75;0.20;;;;;;;;;;5925534;28;20043;-75
2023/08/02 13:52:33;;;;;;;1.50;0.38;;;;;;;;;;5924564;28;20072;-78
2023/08/02 13:55:24;;;;;;;0.10;0.10;;;;;;;;;;5924465;28;20135;-79
2023/08/02 13:58:15;;;;;;;0.20;0.20;;;;;;;;;;5924704;28;20053;-77
2023/08/02 14:01:06;;;;;;;0.85;0.35;;;;;;;;;;5925790;28;20040;-77
2023/08/02 14:03:57;;;;;;;0.35;0.20;;;;;;;;;;5924353;28;20055;-76
2023/08/02 14:06:47;;;;;;;0.70;0.47;;;;;;;;;;5924202;28;20052;-78
2023/08/02 14:09:41;;;;;;;0.40;0.10;;;;;;;;;;5925525;28;20053;-76
2023/08/02 14:12:32;;;;;;;0.52;0.17;;;;;;;;;;5925786;28;20051;-78
2023/08/02 14:15:23;;;;;;;0.00;0.00;;;;;;;;;;5924781;28;22284;-77
2023/08/02 14:18:14;;;;;;;0.00;0.00;;;;;;;;;;5924443;28;20051;-76
2023/08/02 14:21:04;;;;;;;1.02;0.28;;;;;;;;;;5932260;28;20067;-74
2023/08/02 14:23:56;;;;;;;0.57;0.10;;;;;;;;;;5917030;28;20048;-77
2023/08/02 14:26:46;;;;;;;0.45;0.38;;;;;;;;;;5919160;28;20044;-79
2023/08/02 14:29:37;;;;;;;1.25;0.43;;;;;;;;;;5918644;28;20499;-76
2023/08/02 14:32:28;;;;;;;0.85;0.20;;;;;;;;;;5915143;28;20044;-75
2023/08/02 14:35:19;;;;;;;0.85;0.25;;;;;;;;;;5917838;28;20055;-77
2023/08/02 14:38:10;;;;;;;3.28;0.30;;;;;;;;;;5926430;28;20040;-77
2023/08/02 14:41:01;;;;;;;1.38;0.30;;;;;;;;;;5921503;28;20052;-76
2023/08/02 14:43:52;;;;;;;0.15;0.15;;;;;;;;;;5914832;28;20048;-77
2023/08/02 14:46:42;;;;;;;1.15;0.20;;;;;;;;;;5924765;28;20056;-77
2023/08/02 14:49:33;;;;;;;0.85;0.38;;;;;;;;;;5925366;28;20040;-78
2023/08/02 14:52:24;;;;;;;0.03;0.03;;;;;;;;;;5926412;28;20169;-77
2023/08/02 14:55:15;;;;;;;0.35;0.35;;;;;;;;;;5923604;28;20447;-77
2023/08/02 14:58:06;;;;;;;0.10;0.10;;;;;;;;;;5922552;28;20040;-77
2023/08/02 15:00:57;;;;;;;0.20;0.10;;;;;;;;;;5907682;28;20040;-76
2023/08/02 15:03:48;;;;;;;0.43;0.10;;;;;;;;;;5894121;28;20159;-78
2023/08/02 15:06:41;;;;;;;0.13;0.13;;;;;;;;;;5913516;28;20055;-75
2023/08/02 15:09:33;;;;;;;0.45;0.28;;;;;;;;;;5913185;28;20044;-76
2023/08/02 15:12:24;;;;;;;0.52;0.20;;;;;;;;;;5912237;28;20040;-76
2023/08/02 15:15:14;;;;;;;0.00;0.00;;;;;;;;;;5894566;28;20438;-75
2023/08/02 15:18:05;;;;;;;0.25;0.25;;;;;;;;;;5923863;28;20485;-77
2023/08/02 15:20:56;;;;;;;0.08;0.08;;;;;;;;;;5923361;28;20068;-76
2023/08/02 15:23:47;;;;;;;0.55;0.40;;;;;;;;;;5925997;28;20054;-78
2023/08/02 15:26:38;;;;;;;0.68;0.40;;;;;;;;;;5923299;28;20051;-78
2023/08/02 15:29:29;;;;;;;0.20;0.20;;;;;;;;;;5925410;28;20388;-76
2023/08/02 15:32:20;;;;;;;3.38;0.57;;;;;;;;;;5925876;28;20051;-75
2023/08/02 15:35:12;;;;;;;2.72;0.30;;;;;;;;;;5923279;28;20055;-78
2023/08/02 15:38:03;;;;;;;0.10;0.10;;;;;;;;;;5923135;28;20050;-77
2023/08/02 15:40:55;;;;;;;0.30;0.20;;;;;;;;;;5922482;28;20048;-76
2023/08/02 15:43:46;;;;;;;0.08;0.08;;;;;;;;;;5904013;28;20130;-76
2023/08/02 15:46:37;;;;;;;7.32;0.20;;;;;;;;;;5923625;28;20048;-77
2023/08/02 15:49:28;;;;;;;0.70;0.20;;;;;;;;;;5922555;28;20074;-77
2023/08/02 15:52:18;;;;;;;0.98;0.50;;;;;;;;;;5921990;28;20442;-75
2023/08/02 15:55:09;;;;;;;0.40;0.40;;;;;;;;;;5914053;28;20055;-78
2023/08/02 15:58:00;;;;;;;0.57;0.32;;;;;;;;;;5924328;28;20044;-75
2023/08/02 16:00:51;;;;;;;0.10;0.10;;;;;;;;;;5922445;28;20043;-78
2023/08/02 16:03:42;;;;;;;0.13;0.13;;;;;;;;;;5897113;28;20454;-75
2023/08/02 16:06:32;;;;;;;0.15;0.15;;;;;;;;;;5924150;28;20044;-76
2023/08/02 16:09:23;;;;;;;0.77;0.70;;;;;;;;;;5923915;28;20052;-75
2023/08/02 16:12:14;;;;;;;0.38;0.10;;;;;;;;;;5918954;28;20516;-76
2023/08/02 16:15:09;;;;;;;0.98;0.63;;;;;;;;;;5921380;28;20043;-77
2023/08/02 16:18:00;;;;;;;0.47;0.10;;;;;;;;;;5923450;28;20421;-75
2023/08/02 16:20:51;;;;;;;0.40;0.20;;;;;;;;;;5905020;28;20047;-77
2023/08/02 16:23:42;;;;;;;0.45;0.35;;;;;;;;;;5921250;28;20051;-77
2023/08/02 16:26:33;;;;;;;0.20;0.13;;;;;;;;;;5923287;28;20049;-77
2023/08/02 16:29:23;;;;;;;0.30;0.30;;;;;;;;;;5926176;28;20051;-76
2023/08/02 16:32:14;;;;;;;0.30;0.30;;;;;;;;;;5909751;28;20057;-78
2023/08/02 16:35:05;;;;;;;0.80;0.57;;;;;;;;;;5909763;28;20135;-78
2023/08/02 16:37:56;;;;;;;2.85;1.00;;;;;;;;;;5910920;28;20059;-76
2023/08/02 16:40:47;;;;;;;3.63;0.43;;;;;;;;;;5910587;28;20047;-77
2023/08/02 16:43:38;;;;;;;2.85;0.28;;;;;;;;;;5910532;28;20054;-77
2023/08/02 16:46:28;;;;;;;0.50;0.30;;;;;;;;;;5910568;28;20044;-75
2023/08/02 16:49:19;;;;;;;0.20;0.20;;;;;;;;;;5911236;28;20472;-77
2023/08/02 16:52:10;;;;;;;0.30;0.20;;;;;;;;;;5913569;28;20044;-76
2023/08/02 16:55:01;;;;;;;0.22;0.22;;;;;;;;;;5912229;28;20044;-75
2023/08/02 16:57:52;;;;;;;0.40;0.22;;;;;;;;;;5911678;28;20048;-76
2023/08/02 17:00:42;;;;;;;2.85;0.45;;;;;;;;;;5894449;28;20499;-75
2023/08/02 17:03:33;;;;;;;0.57;0.20;;;;;;;;;;5912881;28;20060;-77
2023/08/02 17:06:25;;;;;;;1.02;0.45;;;;;;;;;;5910554;28;20045;-75
2023/08/02 17:09:17;;;;;;;0.20;0.20;;;;;;;;;;5911301;28;20079;-77
2023/08/02 17:12:09;;;;;;;0.20;0.20;;;;;;;;;;5910904;28;20079;-76